Logo AVAMET
Benvolgut visitant, si us plau, ingressa Recuperar contrasenya

Alcanar

Dades diàries. Acumulats / Últims 30 dies disponibles

Data Temperatura (°C) Humitat rel. (%) Pressió rel. (hPa) Vent (km/h) Precipitació
Mínima Mitjana Màxima Amplitud
tèrmica
Mínima Mitjana Màxima Mínima Mitjana Màxima Predom. Mitjana Ràfega
màxima
Total
(mm)
Índex-n
Mínima Mitjana Màxima Mínima Mitjana Màxima n
0 a 1
P0 max
mm 5'
Dades mensuals acumulades fins l'últim dia disponible
09/2019 15,1 19,6 23,2 22,9 23,4 26,2 29,2 14,1 27 66 90 1.007 1.020 1.030   45,0 30,2
Dades anuals acumulades fins l'últim dia disponible
2019 3,1 14,9 25,9 18,3 10,7 21,6 34,4 31,3 19 66 98 991 1.018 1.037   71,0 101,0
Últims 30 dies disponibles
16-09-2019 22,0     24,4     26,8 4,8 54 70 86 1.018 1.020 1.021 24,0 0,0
15-09-2019 22,0     23,9     25,8 3,8 62 76 90 1.020 1.022 1.024 32,0 0,0
14-09-2019 18,6     22,5     26,4 7,8 50 69 88 1.023 1.025 1.027 34,0 0,2
13-09-2019 18,6     21,8     24,9 6,3 40 65 90 1.025 1.028 1.030 40,0 14,6
12-09-2019 22,1     24,7     27,3 5,2 38 55 71 1.024 1.027 1.029 29,0 0,0
11-09-2019 15,1     19,2     23,4 8,3 66 77 87 1.013 1.019 1.025 44,0 12,8
10-09-2019 16,6     20,5     24,4 7,8 30 58 85 1.007 1.011 1.014 45,0 0,2
09-09-2019 20,1     22,9     25,7 5,6 43 62 81 1.010 1.014 1.018 21,0 0,0
08-09-2019 19,0     22,1     25,3 6,3 44 62 80 1.016 1.018 1.020 24,0 0,0
07-09-2019 19,3     22,1     24,8 5,5 42 57 71 1.018 1.020 1.022 21,0 0,0
06-09-2019 17,1     21,3     25,5 8,4 36 57 78 1.019 1.020 1.021 31,0 0,0
05-09-2019 20,0     24,6     29,2 9,2 27 54 80 1.017 1.018 1.019 27,0 0,0
04-09-2019 20,4     23,9     27,5 7,1 69 79 89 1.017 1.019 1.021 26,0 0,0
03-09-2019 19,7     23,1     26,6 6,9 42 64 86 1.020 1.021 1.022 19,0 0,0
02-09-2019 20,3     23,7     27,1 6,8 52 71 89 1.016 1.018 1.020 19,0 2,0
01-09-2019 23,2     26,1     28,9 5,7 61 76 90 1.013 1.015 1.016 21,0 0,4
31-08-2019 21,8     26,4     31,1 9,3 46 66 85 1.013 1.016 1.018 26,0 0,0
30-08-2019 21,8     25,6     29,3 7,5 60 72 83 1.018 1.020 1.021 19,0 0,0
29-08-2019 21,4     24,7     28,0 6,6 64 74 83 1.018 1.019 1.020 19,0 0,0
28-08-2019 19,2     23,5     27,8 8,6 57 74 90 1.016 1.017 1.018 18,0 0,0
27-08-2019 20,9     23,1     25,4 4,5 73 83 93 1.014 1.016 1.017 27,0 8,8
26-08-2019 23,7     25,2     26,7 3,0 75 83 91 1.015 1.016 1.017 11,0 0,4
25-08-2019 21,7     25,3     28,9 7,2 61 74 86 1.016 1.018 1.019 19,0 0,0
24-08-2019 21,7     25,0     28,3 6,6 57 71 85 1.018 1.019 1.020 21,0 0,0
23-08-2019 20,6     24,4     28,2 7,6 61 76 90 1.019 1.020 1.021 21,0 0,0
22-08-2019 20,4     24,5     28,6 8,2 50 67 84 1.019 1.020 1.021 21,0 0,0
21-08-2019 20,4     24,0     27,6 7,2 62 74 86 1.018 1.020 1.022 27,0 0,8
20-08-2019 20,3     22,6     24,9 4,6 65 78 91 1.015 1.019 1.022 50,0 4,6
19-08-2019 24,4     26,1     27,7 3,3 55 73 90 1.013 1.015 1.017 26,0 0,0
18-08-2019 23,9     26,4     28,8 4,9 75 82 88 1.011 1.013 1.014 23,0 0,0
Últims 13 mesos disponibles
08/2019 19,2 22,7 25,9 25,6 24,9 28,6 31,3 12,1 58 72 83 1.011 1.016 1.020 50,0 14,6
07/2019 19,2 23,0 25,4 26,1 26,1 29,2 32,4 13,2 53 67 81 1.006 1.014 1.021 44,0 7,8
06/2019 11,6 18,5 23,8 21,8 19,9 25,0 34,4 22,8 42 66 84 1.010 1.016 1.023 37,0 5,6
05/2019 11,3 14,7 19,8 18,0 16,9 21,3 27,8 16,5 43 64 89 1.006 1.016 1.025 64,0 19,6
04/2019 8,1 11,8 15,1 14,9 16,0 18,1 23,4 15,3 44 66 82 1.000 1.014 1.026 53,0 17,2
03/2019 6,9 10,3 12,4 14,2 13,8 18,1 24,1 17,2 43 61 83 1.012 1.024 1.031 53,0 4,4
02/2019 4,8 8,1 10,9 11,8 11,5 15,5 20,5 15,7 36 69 84 994 1.026 1.036 69,0 0,4
01/2019 3,1 7,7 11,1 11,0 10,7 14,2 18,6 15,5 40 61 84 1.002 1.020 1.033 71,0 1,2
12/2018 6,4 10,2 13,8 13,5 10,6 16,7 23,0 16,6 54 71 88 1.015 1.026 1.032 66,0 0,4
11/2018 8,3 11,6 17,0 14,6 14,2 17,5 19,7 11,4 54 75 89 1.003 1.016 1.025 71,0 98,2
10/2018 7,6 15,3 19,7 18,5 14,1 21,8 26,1 18,5 44 71 91 998 1.015 1.027 61,0 245,4
09/2018 17,2 20,7 23,5 23,9 23,3 27,1 29,8 12,6 53 73 84 1.013 1.020 1.030 44,0 58,0
08/2018 18,8 22,9 27,2 26,2 26,3 29,5 35,2 16,4 50 68 82 1.012 1.016 1.022 40,0 20,2
Tots els anys disponibles
2018 1,7 14,9 27,2 18,2 4,2 21,4 35,2 33,5 36 69 94 995 1.016 1.037 77,0 612,0
2017 2,3 14,6 25,4 17,9 8,2 21,3 34,2 31,9 32 68 93 998 1.020 1.038 71,0 185,2
2016 2,3 14,7 24,7 17,9 10,8 21,0 31,6 29,3 36 69 94 994 1.019 1.039 69,0 318,4
2015 2,1 14,7 21,4 17,9 19,3 21,2 32,0 29,9 58 69 80 1.016 1.020 1.031 89,0 330,4
2014 3,7 14,9 25,1 18,0 10,6 21,1 32,4 28,7 38 69 92 996 1.017 1.035 82,0 313,0
2013 2,5 14,1 18,7 17,4 17,4 20,6 31,6 29,1 57 66 71 1.008 1.017 1.026 82,0 400,8
2012 -0,2 6,3 3,8 10,0 20,4 13,6 22,4 22,6 46 56 67 87,0
2011 -0,2 14,3 24,5 17,5 7,8 20,7 31,4 31,6 37 69 91 119,0 435,6
Temperatura (°C)
Humitat relativa (%)
Velocitat del vent i ràfega màxima (km/h)
Direcció del vent (°)
Pressió (hPa)
Precipitació (mm)
Nota sobre les dades: s'avisa a l'usuari de la provisionalitat i no oficialitat d'aquestes dades
Logo AVAMET blanc
Web allotjada a Sollutia
Llicència de Creative CommonsLa web d'AVAMET i els seus continguts estan subjectes a una llicència de
Reconeixement - No Comercial - Compartir igual
Properes estacions: Altea - Club Nàutic d'Altea (Soci),    - - - - -      Últimes estacions: Llíria - Bodegas del Campo (Soci), La Pobla Tornesa (Soci), Quartell (Soci), Alzira - Est (Soci/Inforatge), San Miguel de las Salinas (MeteOrihuela), Segorbe (Inforatge), Alcalà de Xivert - Alcossebre (Inforatge), Moixent - la Foia (Soci), Callosa d'en Sarrià - Centre (Soci) - - -